createdAt,value
2018-10-19T00:00:35.933Z,12.17
2018-10-19T00:01:35.912Z,12.17
2018-10-19T00:02:35.891Z,12.18
2018-10-19T00:03:35.872Z,12.17
2018-10-19T00:04:35.850Z,12.10
2018-10-19T00:05:35.831Z,12.12
2018-10-19T00:06:35.810Z,12.11
2018-10-19T00:07:35.795Z,12.05
2018-10-19T00:08:35.777Z,12.10
2018-10-19T00:09:35.750Z,12.03
2018-10-19T00:10:35.728Z,11.99
2018-10-19T00:11:35.708Z,12.05
2018-10-19T00:12:35.695Z,12.02
2018-10-19T00:13:35.667Z,12.00
2018-10-19T00:14:35.647Z,11.99
2018-10-19T00:15:35.628Z,12.00
2018-10-19T00:16:35.609Z,12.05
2018-10-19T00:17:35.588Z,11.93
2018-10-19T00:18:35.564Z,12.00
2018-10-19T00:19:35.544Z,12.00
2018-10-19T00:20:35.525Z,11.97
2018-10-19T00:21:35.505Z,12.05
2018-10-19T00:22:35.484Z,12.02
2018-10-19T00:23:35.462Z,12.10
2018-10-19T00:24:35.443Z,12.07
2018-10-19T00:25:35.423Z,12.00
2018-10-19T00:26:35.401Z,11.96
2018-10-19T00:27:35.381Z,11.97
2018-10-19T00:28:35.361Z,11.97
2018-10-19T00:29:35.340Z,12.05
2018-10-19T00:30:35.333Z,12.11
2018-10-19T00:31:35.300Z,12.07
2018-10-19T00:32:35.279Z,11.96
2018-10-19T00:33:35.258Z,12.05
2018-10-19T00:34:35.237Z,12.07
2018-10-19T00:35:35.219Z,12.02
2018-10-19T00:36:35.247Z,12.07
2018-10-19T00:37:35.178Z,12.07
2018-10-19T00:38:35.155Z,12.02
2018-10-19T00:39:35.134Z,12.08
2018-10-19T00:40:35.114Z,12.08
2018-10-19T00:41:35.095Z,11.99
2018-10-19T00:42:35.074Z,11.96
2018-10-19T00:43:35.053Z,11.99
2018-10-19T00:44:35.032Z,12.00
2018-10-19T00:45:35.013Z,11.96
2018-10-19T00:46:34.992Z,11.99
2018-10-19T00:47:34.971Z,11.88
2018-10-19T00:48:34.953Z,11.95
2018-10-19T00:49:34.930Z,11.99
2018-10-19T00:50:34.909Z,11.93
2018-10-19T00:51:34.890Z,11.95
2018-10-19T00:52:34.869Z,11.97
2018-10-19T00:53:34.852Z,11.96
2018-10-19T00:54:34.826Z,11.93
2018-10-19T00:55:34.805Z,12.02
2018-10-19T00:56:34.786Z,11.93
2018-10-19T00:57:34.765Z,12.02
2018-10-19T00:58:34.744Z,11.89
2018-10-19T00:59:34.722Z,11.96
2018-10-19T01:00:34.703Z,12.02
2018-10-19T01:01:34.683Z,11.99
2018-10-19T01:02:34.663Z,12.00
2018-10-19T01:03:34.641Z,12.02
2018-10-19T01:04:34.622Z,12.00
2018-10-19T01:05:34.600Z,12.05
2018-10-19T01:06:34.578Z,11.99
2018-10-19T01:07:34.560Z,12.02
2018-10-19T01:08:34.538Z,11.99
2018-10-19T01:09:34.518Z,12.00
2018-10-19T01:10:34.495Z,11.99
2018-10-19T01:11:34.483Z,11.86
2018-10-19T01:12:34.456Z,11.93
2018-10-19T01:13:34.438Z,11.99
2018-10-19T01:14:34.415Z,12.05
2018-10-19T01:15:34.394Z,11.93
2018-10-19T01:16:34.374Z,11.96
2018-10-19T01:17:34.352Z,12.02
2018-10-19T01:18:34.331Z,11.97
2018-10-19T01:19:34.311Z,12.00
2018-10-19T01:20:34.315Z,12.05
2018-10-19T01:21:34.269Z,12.05
2018-10-19T01:22:34.250Z,12.02
2018-10-19T01:23:34.227Z,11.99
2018-10-19T01:24:34.207Z,12.00
2018-10-19T01:25:34.188Z,11.99
2018-10-19T01:26:34.165Z,12.03
2018-10-19T01:27:34.149Z,11.99
2018-10-19T01:28:34.125Z,12.02
2018-10-19T01:29:34.104Z,12.00
2018-10-19T01:30:34.082Z,11.95
2018-10-19T01:31:34.063Z,11.89
2018-10-19T01:32:34.043Z,11.93
2018-10-19T01:33:34.020Z,11.95
2018-10-19T01:34:34.001Z,11.85
2018-10-19T01:35:33.980Z,11.99
2018-10-19T01:36:33.959Z,11.89
2018-10-19T01:37:33.940Z,11.89
2018-10-19T01:38:33.920Z,11.85
2018-10-19T01:39:33.898Z,11.97
2018-10-19T01:40:33.877Z,11.96
2018-10-19T01:41:33.855Z,11.89
2018-10-19T01:42:33.834Z,12.05
2018-10-19T01:43:33.815Z,11.91
2018-10-19T01:44:33.792Z,11.95
2018-10-19T01:45:33.772Z,11.96
2018-10-19T01:46:33.752Z,11.96
2018-10-19T01:47:33.730Z,11.88
2018-10-19T01:48:33.710Z,11.96
2018-10-19T01:49:33.689Z,11.86
2018-10-19T01:50:33.667Z,11.95
2018-10-19T01:51:33.647Z,11.95
2018-10-19T01:52:33.627Z,11.86
2018-10-19T01:53:33.608Z,11.88
2018-10-19T01:54:33.585Z,11.86
2018-10-19T01:55:33.565Z,11.78
2018-10-19T01:56:33.543Z,11.83
2018-10-19T01:57:33.524Z,11.83
2018-10-19T01:58:33.503Z,11.85
2018-10-19T01:59:33.482Z,11.81
2018-10-19T02:00:33.460Z,11.78
2018-10-19T02:01:33.439Z,11.78
2018-10-19T02:02:33.418Z,11.76
2018-10-19T02:03:33.397Z,11.76
2018-10-19T02:04:33.377Z,11.73
2018-10-19T02:05:33.357Z,11.76
2018-10-19T02:06:33.359Z,11.76
2018-10-19T02:07:33.315Z,11.70
2018-10-19T02:08:33.294Z,11.65
2018-10-19T02:09:33.273Z,11.73
2018-10-19T02:10:33.252Z,11.59
2018-10-19T02:11:33.235Z,11.65
2018-10-19T02:12:33.211Z,11.63
2018-10-19T02:13:33.190Z,11.68
2018-10-19T02:14:33.171Z,11.70
2018-10-19T02:15:33.150Z,11.68
2018-10-19T02:16:33.128Z,11.70
2018-10-19T02:17:33.106Z,11.67
2018-10-19T02:18:33.087Z,11.70
2018-10-19T02:19:33.069Z,11.67
2018-10-19T02:20:33.045Z,11.67
2018-10-19T02:21:33.024Z,11.59
2018-10-19T02:22:33.002Z,11.67
2018-10-19T02:23:32.981Z,11.55
2018-10-19T02:24:32.961Z,11.56
2018-10-19T02:25:32.940Z,11.52
2018-10-19T02:26:32.918Z,11.59
2018-10-19T02:27:32.900Z,11.53
2018-10-19T02:28:32.877Z,11.52
2018-10-19T02:29:32.857Z,11.59
2018-10-19T02:30:32.836Z,11.55
2018-10-19T02:31:32.817Z,11.53
2018-10-19T02:32:32.793Z,11.58
2018-10-19T02:33:32.774Z,11.53
2018-10-19T02:34:32.752Z,11.53
2018-10-19T02:35:32.731Z,11.51
2018-10-19T02:36:32.710Z,11.49
2018-10-19T02:37:32.690Z,11.48
2018-10-19T02:38:32.668Z,11.53
2018-10-19T02:39:32.648Z,11.48
2018-10-19T02:40:32.627Z,11.43
2018-10-19T02:41:32.606Z,11.43
2018-10-19T02:42:32.585Z,11.38
2018-10-19T02:43:32.564Z,11.44
2018-10-19T02:44:32.544Z,11.43
2018-10-19T02:45:32.523Z,11.43
2018-10-19T02:46:32.501Z,11.35
2018-10-19T02:47:32.480Z,11.41
2018-10-19T02:48:32.462Z,11.52
2018-10-19T02:49:32.438Z,11.44
2018-10-19T02:50:32.416Z,11.44
2018-10-19T02:51:32.394Z,11.43
2018-10-19T02:52:32.376Z,11.35
2018-10-19T02:53:32.355Z,11.35
2018-10-19T02:54:32.332Z,11.31
2018-10-19T02:55:32.321Z,11.37
2018-10-19T02:56:32.310Z,11.43
2018-10-19T02:57:32.271Z,11.40
2018-10-19T02:58:32.249Z,11.38
2018-10-19T02:59:32.229Z,11.37
2018-10-19T03:00:32.209Z,11.38
2018-10-19T03:01:32.186Z,11.38
2018-10-19T03:02:32.165Z,11.34
2018-10-19T03:03:32.144Z,11.40
2018-10-19T03:04:32.123Z,11.43
2018-10-19T03:05:32.106Z,11.31
2018-10-19T03:06:32.081Z,11.37
2018-10-19T03:07:32.060Z,11.34
2018-10-19T03:08:32.039Z,11.30
2018-10-19T03:09:32.018Z,11.38
2018-10-19T03:10:32.002Z,11.37
2018-10-19T03:11:31.987Z,11.22
2018-10-19T03:12:31.956Z,11.22
2018-10-19T03:13:31.937Z,11.31
2018-10-19T03:14:31.911Z,11.35
2018-10-19T03:15:31.893Z,11.25
2018-10-19T03:16:31.872Z,11.34
2018-10-19T03:17:31.850Z,11.37
2018-10-19T03:18:31.829Z,11.31
2018-10-19T03:19:31.809Z,11.37
2018-10-19T03:20:31.787Z,11.37
2018-10-19T03:21:31.768Z,11.37
2018-10-19T03:22:31.743Z,11.33
2018-10-19T03:23:31.723Z,11.35
2018-10-19T03:24:31.702Z,11.38
2018-10-19T03:25:31.683Z,11.37
2018-10-19T03:26:31.660Z,11.37
2018-10-19T03:27:31.639Z,11.40
2018-10-19T03:28:31.617Z,11.41
2018-10-19T03:29:31.605Z,11.35
2018-10-19T03:30:31.576Z,11.43
2018-10-19T03:31:31.554Z,11.38
2018-10-19T03:32:31.535Z,11.41
2018-10-19T03:33:31.518Z,11.44
2018-10-19T03:34:31.491Z,11.44
2018-10-19T03:35:31.470Z,11.38
2018-10-19T03:36:31.450Z,11.48
2018-10-19T03:37:31.429Z,11.37
2018-10-19T03:38:31.409Z,11.43
2018-10-19T03:39:31.387Z,11.34
2018-10-19T03:40:31.367Z,11.40
2018-10-19T03:41:31.345Z,11.38
2018-10-19T03:42:31.322Z,11.37
2018-10-19T03:43:31.302Z,11.38
2018-10-19T03:44:31.281Z,11.38
2018-10-19T03:45:31.273Z,11.44
2018-10-19T03:46:31.238Z,11.40
2018-10-19T03:47:31.218Z,11.49
2018-10-19T03:48:31.196Z,11.48
2018-10-19T03:49:31.175Z,11.48
2018-10-19T03:50:31.153Z,11.51
2018-10-19T03:51:31.133Z,11.44
2018-10-19T03:52:31.120Z,11.51
2018-10-19T03:53:31.090Z,11.44
2018-10-19T03:54:31.068Z,11.49
2018-10-19T03:55:31.047Z,11.45
2018-10-19T03:56:31.026Z,11.43
2018-10-19T03:57:31.006Z,11.35
2018-10-19T03:58:30.984Z,11.38
2018-10-19T03:59:30.964Z,11.40
2018-10-19T04:00:30.942Z,11.37
2018-10-19T04:01:30.921Z,11.43
2018-10-19T04:02:30.902Z,11.37
2018-10-19T04:03:30.885Z,11.49
2018-10-19T04:04:30.861Z,11.38
2018-10-19T04:05:30.838Z,11.37
2018-10-19T04:06:30.816Z,11.34
2018-10-19T04:07:30.794Z,11.35
2018-10-19T04:08:30.779Z,11.31
2018-10-19T04:09:30.752Z,11.35
2018-10-19T04:10:30.731Z,11.35
2018-10-19T04:11:30.710Z,11.40
2018-10-19T04:12:30.690Z,11.31
2018-10-19T04:13:30.668Z,11.22
2018-10-19T04:14:30.646Z,11.27
2018-10-19T04:15:30.627Z,11.22
2018-10-19T04:16:30.606Z,11.26
2018-10-19T04:17:30.585Z,11.22
2018-10-19T04:18:30.561Z,11.31
2018-10-19T04:19:30.541Z,11.25
2018-10-19T04:20:30.520Z,11.26
2018-10-19T04:21:30.499Z,11.23
2018-10-19T04:22:30.477Z,11.23
2018-10-19T04:23:30.458Z,11.20
2018-10-19T04:24:30.439Z,11.33
2018-10-19T04:25:30.414Z,11.27
2018-10-19T04:26:30.392Z,11.35
2018-10-19T04:27:30.387Z,11.27
2018-10-19T04:28:30.350Z,11.33
2018-10-19T04:29:30.330Z,11.25
2018-10-19T04:30:30.308Z,11.30
2018-10-19T04:31:30.288Z,11.30
2018-10-19T04:32:30.267Z,11.23
2018-10-19T04:33:30.248Z,11.22
2018-10-19T04:34:30.240Z,11.35
2018-10-19T04:35:30.202Z,11.34
2018-10-19T04:36:30.195Z,11.40
2018-10-19T04:37:30.159Z,11.38
2018-10-19T04:38:30.139Z,11.40
2018-10-19T04:39:30.120Z,11.34
2018-10-19T04:40:30.096Z,11.38
2018-10-19T04:41:30.155Z,11.45
2018-10-19T04:42:30.053Z,11.45
2018-10-19T04:43:30.032Z,11.34
2018-10-19T04:44:30.011Z,11.37
2018-10-19T04:45:29.990Z,11.35
2018-10-19T04:46:29.974Z,11.44
2018-10-19T04:47:29.951Z,11.44
2018-10-19T04:48:29.927Z,11.34
2018-10-19T04:49:29.905Z,11.35
2018-10-19T04:50:29.885Z,11.35
2018-10-19T04:51:29.861Z,11.31
2018-10-19T04:52:29.841Z,11.34
2018-10-19T04:53:29.850Z,11.33
2018-10-19T04:54:29.799Z,11.43
2018-10-19T04:55:29.776Z,11.34
2018-10-19T04:56:29.759Z,11.40
2018-10-19T04:57:29.735Z,11.25
2018-10-19T04:58:29.713Z,11.26
2018-10-19T04:59:29.691Z,11.30
2018-10-19T05:00:29.671Z,11.20
2018-10-19T05:01:29.650Z,11.23
2018-10-19T05:02:29.667Z,11.22
2018-10-19T05:03:29.608Z,11.25
2018-10-19T05:04:29.646Z,11.20
2018-10-19T05:05:29.651Z,11.12
2018-10-19T05:06:29.593Z,11.15
2018-10-19T05:07:29.522Z,11.16
2018-10-19T05:08:29.520Z,11.16
2018-10-19T05:09:29.480Z,11.04
2018-10-19T05:10:29.457Z,11.02
2018-10-19T05:11:29.436Z,10.94
2018-10-19T05:12:29.478Z,10.86
2018-10-19T05:13:29.396Z,10.76
2018-10-19T05:14:29.372Z,10.76
2018-10-19T05:15:29.351Z,10.71
2018-10-19T05:16:29.331Z,10.75
2018-10-19T05:17:29.311Z,10.57
2018-10-19T05:18:29.288Z,10.62
2018-10-19T05:19:29.266Z,10.61
2018-10-19T05:20:29.246Z,10.62
2018-10-19T05:21:29.224Z,10.58
2018-10-19T05:22:29.223Z,10.61
2018-10-19T05:23:29.180Z,10.51
2018-10-19T05:24:29.233Z,10.55
2018-10-19T05:25:29.138Z,10.48
2018-10-19T05:26:29.116Z,10.49
2018-10-19T05:27:29.096Z,10.51
2018-10-19T05:28:29.075Z,10.43
2018-10-19T05:29:29.052Z,10.58
2018-10-19T05:30:29.030Z,10.55
2018-10-19T05:31:29.012Z,10.55
2018-10-19T05:32:28.989Z,10.58
2018-10-19T05:33:28.968Z,10.57
2018-10-19T05:34:28.944Z,10.57
2018-10-19T05:35:28.925Z,10.55
2018-10-19T05:36:28.901Z,10.58
2018-10-19T05:37:28.882Z,10.61
2018-10-19T05:38:28.859Z,10.64
2018-10-19T05:39:28.838Z,10.67
2018-10-19T05:40:28.819Z,10.62
2018-10-19T05:41:28.794Z,10.69
2018-10-19T05:42:28.776Z,10.65
2018-10-19T05:43:28.763Z,10.69
2018-10-19T05:44:28.730Z,10.76
2018-10-19T05:45:28.709Z,10.71
2018-10-19T05:46:28.688Z,10.62
2018-10-19T05:47:28.667Z,10.71
2018-10-19T05:48:28.645Z,10.79
2018-10-19T05:49:28.622Z,10.65
2018-10-19T05:50:28.601Z,10.64
2018-10-19T05:51:28.579Z,10.53
2018-10-19T05:52:28.558Z,10.55
2018-10-19T05:53:28.537Z,10.55
2018-10-19T05:54:28.514Z,10.46
2018-10-19T05:55:28.503Z,10.51
2018-10-19T05:56:28.473Z,10.49
2018-10-19T05:57:28.451Z,10.55
2018-10-19T05:58:28.429Z,10.51
2018-10-19T05:59:28.407Z,10.51
2018-10-19T06:00:28.386Z,10.51
2018-10-19T06:01:28.365Z,10.59
2018-10-19T06:02:28.435Z,10.69
2018-10-19T06:03:28.321Z,10.61
2018-10-19T06:04:28.299Z,10.57
2018-10-19T06:05:28.278Z,10.61
2018-10-19T06:06:28.271Z,10.67
2018-10-19T06:07:28.236Z,10.69
2018-10-19T06:08:28.212Z,10.69
2018-10-19T06:09:28.192Z,10.76
2018-10-19T06:10:28.170Z,10.67
2018-10-19T06:11:28.150Z,10.68
2018-10-19T06:12:28.127Z,10.67
2018-10-19T06:13:28.156Z,10.76
2018-10-19T06:14:28.109Z,10.79
2018-10-19T06:15:28.063Z,10.72
2018-10-19T06:16:28.040Z,10.59
2018-10-19T06:17:28.019Z,10.68
2018-10-19T06:18:27.995Z,10.62
2018-10-19T06:19:27.976Z,10.59
2018-10-19T06:20:27.954Z,10.71
2018-10-19T06:21:27.932Z,10.72
2018-10-19T06:22:27.909Z,10.69
2018-10-19T06:23:27.888Z,10.68
2018-10-19T06:24:27.870Z,10.79
2018-10-19T06:25:27.846Z,10.68
2018-10-19T06:26:27.846Z,10.68
2018-10-19T06:27:27.802Z,10.75
2018-10-19T06:28:27.780Z,10.75
2018-10-19T06:29:27.759Z,10.71
2018-10-19T06:30:27.737Z,10.59
2018-10-19T06:31:27.720Z,10.58
2018-10-19T06:32:27.695Z,10.67
2018-10-19T06:33:27.672Z,10.68
2018-10-19T06:34:27.648Z,10.72
2018-10-19T06:35:27.629Z,10.71
2018-10-19T06:36:27.609Z,10.72
2018-10-19T06:37:27.587Z,10.69
2018-10-19T06:38:27.568Z,10.75
2018-10-19T06:39:27.542Z,10.72
2018-10-19T06:40:27.524Z,10.68
2018-10-19T06:41:27.498Z,10.80
2018-10-19T06:42:27.479Z,10.71
2018-10-19T06:43:27.456Z,10.84
2018-10-19T06:44:27.433Z,10.80
2018-10-19T06:45:27.412Z,10.82
2018-10-19T06:46:27.401Z,10.75
2018-10-19T06:47:27.391Z,10.71
2018-10-19T06:48:27.348Z,10.82
2018-10-19T06:49:27.326Z,10.82
2018-10-19T06:50:27.305Z,10.79
2018-10-19T06:51:27.282Z,10.84
2018-10-19T06:52:27.262Z,10.80
2018-10-19T06:53:27.241Z,10.72
2018-10-19T06:54:27.220Z,10.76
2018-10-19T06:55:27.197Z,10.82
2018-10-19T06:56:27.194Z,10.90
2018-10-19T06:57:27.153Z,10.83
2018-10-19T06:58:27.131Z,10.84
2018-10-19T06:59:27.127Z,10.89
2018-10-19T07:00:27.092Z,10.84
2018-10-19T07:01:27.070Z,10.89
2018-10-19T07:02:27.044Z,10.84
2018-10-19T07:03:27.023Z,10.97
2018-10-19T07:04:27.003Z,10.90
2018-10-19T07:05:26.996Z,10.87
2018-10-19T07:06:26.958Z,10.92
2018-10-19T07:07:26.936Z,10.94
2018-10-19T07:08:27.007Z,10.97
2018-10-19T07:09:26.894Z,10.95
2018-10-19T07:10:26.875Z,11.05
2018-10-19T07:11:26.851Z,11.05
2018-10-19T07:12:26.833Z,11.02
2018-10-19T07:13:26.806Z,11.01
2018-10-19T07:14:26.784Z,11.01
2018-10-19T07:15:26.763Z,11.01
2018-10-19T07:16:26.743Z,11.04
2018-10-19T07:17:26.723Z,11.05
2018-10-19T07:18:26.699Z,11.04
2018-10-19T07:19:26.678Z,11.04
2018-10-19T07:20:26.657Z,11.08
2018-10-19T07:21:26.633Z,11.19
2018-10-19T07:22:26.612Z,11.22
2018-10-19T07:23:26.591Z,11.15
2018-10-19T07:24:26.575Z,11.15
2018-10-19T07:25:26.548Z,11.15
2018-10-19T07:26:26.526Z,11.15
2018-10-19T07:27:26.506Z,11.23
2018-10-19T07:28:26.483Z,11.15
2018-10-19T07:29:26.504Z,11.16
2018-10-19T07:30:26.439Z,11.27
2018-10-19T07:31:26.417Z,11.23
2018-10-19T07:32:26.407Z,11.30
2018-10-19T07:33:26.376Z,11.25
2018-10-19T07:34:26.354Z,11.20
2018-10-19T07:35:26.335Z,11.38
2018-10-19T07:36:26.390Z,11.35
2018-10-19T07:37:26.291Z,11.35
2018-10-19T07:38:26.267Z,11.35
2018-10-19T07:39:26.249Z,11.33
2018-10-19T07:40:26.225Z,11.41
2018-10-19T07:41:26.203Z,11.40
2018-10-19T07:42:26.329Z,11.48
2018-10-19T07:43:26.176Z,11.44
2018-10-19T07:44:26.141Z,11.43
2018-10-19T07:45:26.117Z,11.53
2018-10-19T07:46:26.099Z,11.49
2018-10-19T07:47:26.273Z,11.51
2018-10-19T07:48:26.121Z,11.58
2018-10-19T07:49:26.033Z,11.60
2018-10-19T07:50:26.009Z,11.58
2018-10-19T07:51:25.988Z,11.58
2018-10-19T07:52:25.967Z,11.56
2018-10-19T07:53:25.946Z,11.58
2018-10-19T07:54:26.045Z,11.59
2018-10-19T07:55:25.905Z,11.73
2018-10-19T07:56:25.882Z,11.73
2018-10-19T07:57:25.863Z,11.65
2018-10-19T07:58:25.839Z,11.68
2018-10-19T07:59:25.818Z,11.65
2018-10-19T08:00:25.827Z,11.78
2018-10-19T08:01:25.776Z,11.73
2018-10-19T08:02:25.752Z,11.76
2018-10-19T08:03:25.733Z,11.85
2018-10-19T08:04:25.710Z,11.78
2018-10-19T08:05:25.690Z,11.71
2018-10-19T08:06:25.666Z,11.85
2018-10-19T08:07:25.647Z,11.85
2018-10-19T08:08:25.626Z,11.77
2018-10-19T08:09:25.604Z,11.78
2018-10-19T08:10:25.581Z,11.91
2018-10-19T08:11:25.595Z,11.93
2018-10-19T08:12:25.542Z,11.91
2018-10-19T08:13:25.519Z,11.89
2018-10-19T08:14:25.497Z,11.97
2018-10-19T08:15:25.476Z,11.91
2018-10-19T08:16:25.455Z,12.00
2018-10-19T08:17:25.434Z,12.00
2018-10-19T08:18:25.414Z,11.95
2018-10-19T08:19:25.398Z,12.00
2018-10-19T08:20:25.370Z,12.08
2018-10-19T08:21:25.353Z,12.00
2018-10-19T08:22:25.329Z,12.02
2018-10-19T08:23:25.307Z,12.10
2018-10-19T08:24:25.286Z,12.11
2018-10-19T08:25:25.265Z,12.14
2018-10-19T08:26:25.242Z,12.11
2018-10-19T08:27:25.300Z,12.14
2018-10-19T08:28:25.200Z,12.14
2018-10-19T08:29:25.184Z,12.12
2018-10-19T08:30:25.159Z,12.15
2018-10-19T08:31:25.161Z,12.11
2018-10-19T08:32:25.116Z,12.14
2018-10-19T08:33:25.095Z,12.28
2018-10-19T08:34:25.072Z,12.26
2018-10-19T08:35:25.052Z,12.29
2018-10-19T08:36:25.033Z,12.30
2018-10-19T08:37:25.037Z,12.33
2018-10-19T08:38:24.995Z,12.37
2018-10-19T08:39:24.969Z,12.39
2018-10-19T08:40:24.946Z,12.43
2018-10-19T08:41:24.979Z,12.43
2018-10-19T08:42:24.904Z,12.37
2018-10-19T08:43:24.883Z,12.43
2018-10-19T08:44:24.864Z,12.50
2018-10-19T08:45:24.842Z,12.47
2018-10-19T08:46:24.820Z,12.61
2018-10-19T08:47:24.818Z,12.57
2018-10-19T08:48:24.778Z,12.62
2018-10-19T08:49:24.757Z,12.61
2018-10-19T08:50:24.735Z,12.51
2018-10-19T08:51:24.719Z,12.58
2018-10-19T08:52:24.698Z,12.58
2018-10-19T08:53:24.689Z,12.69
2018-10-19T08:54:24.664Z,12.70
2018-10-19T08:55:24.646Z,12.63
2018-10-19T08:56:24.611Z,12.62
2018-10-19T08:57:24.594Z,12.65
2018-10-19T08:58:24.724Z,12.70
2018-10-19T08:59:24.548Z,12.72
2018-10-19T09:00:24.527Z,12.72
2018-10-19T09:01:24.506Z,12.75
2018-10-19T09:02:24.485Z,12.75
2018-10-19T09:03:24.469Z,12.76
2018-10-19T09:04:24.443Z,12.86
2018-10-19T09:05:24.423Z,12.87
2018-10-19T09:06:24.402Z,12.94
2018-10-19T09:07:24.380Z,12.88
2018-10-19T09:08:24.362Z,12.94
2018-10-19T09:09:24.338Z,12.91
2018-10-19T09:10:24.317Z,12.99
2018-10-19T09:11:24.356Z,12.99
2018-10-19T09:12:24.340Z,12.99
2018-10-19T09:13:24.255Z,12.98
2018-10-19T09:14:24.235Z,13.03
2018-10-19T09:15:24.214Z,13.06
2018-10-19T09:16:24.193Z,13.06
2018-10-19T09:17:24.171Z,13.03
2018-10-19T09:18:24.164Z,13.16
2018-10-19T09:19:24.131Z,13.17
2018-10-19T09:20:24.142Z,13.16
2018-10-19T09:21:24.089Z,13.16
2018-10-19T09:22:24.068Z,13.17
2018-10-19T09:23:24.048Z,13.23
2018-10-19T09:24:24.027Z,13.20
2018-10-19T09:25:24.006Z,13.21
2018-10-19T09:26:23.985Z,13.24
2018-10-19T09:27:23.964Z,13.28
2018-10-19T09:28:23.948Z,13.28
2018-10-19T09:29:23.964Z,13.31
2018-10-19T09:30:23.903Z,13.33
2018-10-19T09:31:23.882Z,13.31
2018-10-19T09:32:23.861Z,13.39
2018-10-19T09:33:23.845Z,13.40
2018-10-19T09:34:23.821Z,13.39
2018-10-19T09:35:23.826Z,13.39
2018-10-19T09:36:23.891Z,13.46
2018-10-19T09:37:23.759Z,13.46
2018-10-19T09:38:23.737Z,13.46
2018-10-19T09:39:23.717Z,13.49
2018-10-19T09:40:23.843Z,13.52
2018-10-19T09:41:23.770Z,13.55
2018-10-19T09:42:23.656Z,13.54
2018-10-19T09:43:23.640Z,13.57
2018-10-19T09:44:23.615Z,13.58
2018-10-19T09:45:23.595Z,13.61
2018-10-19T09:46:23.575Z,13.62
2018-10-19T09:47:23.579Z,13.67
2018-10-19T09:48:23.537Z,13.62
2018-10-19T09:49:23.514Z,13.65
2018-10-19T09:50:23.494Z,13.67
2018-10-19T09:51:23.471Z,13.68
2018-10-19T09:52:23.451Z,13.65
2018-10-19T09:53:23.436Z,13.65
2018-10-19T09:54:23.410Z,13.68
2018-10-19T09:55:23.389Z,13.61
2018-10-19T09:56:23.370Z,13.71
2018-10-19T09:57:23.348Z,13.68
2018-10-19T09:58:23.329Z,13.78
2018-10-19T09:59:23.308Z,13.73
2018-10-19T10:00:23.288Z,13.70
2018-10-19T10:01:23.270Z,13.71
2018-10-19T10:02:23.247Z,13.78
2018-10-19T10:03:23.226Z,13.79
2018-10-19T10:04:23.205Z,13.75
2018-10-19T10:05:23.185Z,13.83
2018-10-19T10:06:23.166Z,13.80
2018-10-19T10:07:23.146Z,13.76
2018-10-19T10:08:23.124Z,13.86
2018-10-19T10:09:23.120Z,13.86
2018-10-19T10:10:23.085Z,13.86
2018-10-19T10:11:23.063Z,13.93
2018-10-19T10:12:23.044Z,13.89
2018-10-19T10:13:23.024Z,13.93
2018-10-19T10:14:23.001Z,13.95
2018-10-19T10:15:23.123Z,13.94
2018-10-19T10:16:22.963Z,13.98
2018-10-19T10:17:22.949Z,13.98
2018-10-19T10:18:22.921Z,13.98
2018-10-19T10:19:22.901Z,13.98
2018-10-19T10:20:22.880Z,13.97
2018-10-19T10:21:22.864Z,14.01
2018-10-19T10:22:22.840Z,14.05
2018-10-19T10:23:22.827Z,14.03
2018-10-19T10:24:22.800Z,14.05
2018-10-19T10:25:22.808Z,14.07
2018-10-19T10:26:22.759Z,14.05
2018-10-19T10:27:22.740Z,14.13
2018-10-19T10:28:22.718Z,14.07
2018-10-19T10:29:22.700Z,14.13
2018-10-19T10:30:22.679Z,14.07
2018-10-19T10:31:22.658Z,14.05
2018-10-19T10:32:22.656Z,14.05
2018-10-19T10:33:22.620Z,14.16
2018-10-19T10:34:22.597Z,14.20
2018-10-19T10:35:22.586Z,14.28
2018-10-19T10:36:22.558Z,14.22
2018-10-19T10:37:22.537Z,14.28
2018-10-19T10:38:22.517Z,14.25
2018-10-19T10:39:22.594Z,14.26
2018-10-19T10:40:22.511Z,14.31
2018-10-19T10:41:22.460Z,14.23
2018-10-19T10:42:22.436Z,14.30
2018-10-19T10:43:22.418Z,14.30
2018-10-19T10:44:22.397Z,14.34
2018-10-19T10:45:22.377Z,14.44
2018-10-19T10:46:22.357Z,14.49
2018-10-19T10:47:22.336Z,14.53
2018-10-19T10:48:22.320Z,14.58
2018-10-19T10:49:22.298Z,14.49
2018-10-19T10:50:22.276Z,14.63
2018-10-19T10:51:22.255Z,14.68
2018-10-19T10:52:22.236Z,14.82
2018-10-19T10:53:22.216Z,14.92
2018-10-19T10:54:22.199Z,15.11
2018-10-19T10:55:22.177Z,15.36
2018-10-19T10:56:22.155Z,15.47
2018-10-19T10:57:22.137Z,15.51
2018-10-19T10:58:22.115Z,15.51
2018-10-19T10:59:22.095Z,15.44
2018-10-19T11:00:22.104Z,15.51
2018-10-19T11:01:22.063Z,15.65
2018-10-19T11:02:22.037Z,15.85
2018-10-19T11:03:22.022Z,15.98
2018-10-19T11:04:22.003Z,16.09
2018-10-19T11:05:21.977Z,16.21
2018-10-19T11:06:21.957Z,16.31
2018-10-19T11:07:22.040Z,16.41
2018-10-19T11:08:21.919Z,16.47
2018-10-19T11:09:21.899Z,16.50
2018-10-19T11:10:21.879Z,16.55
2018-10-19T11:11:21.860Z,16.59
2018-10-19T11:12:21.841Z,16.50
2018-10-19T11:13:21.869Z,16.32
2018-10-19T11:14:21.802Z,16.10
2018-10-19T11:15:21.784Z,16.12
2018-10-19T11:16:21.766Z,15.91
2018-10-19T11:17:21.746Z,15.84
2018-10-19T11:18:21.726Z,15.85
2018-10-19T11:19:21.711Z,16.31
2018-10-19T11:20:21.688Z,16.62
2018-10-19T11:21:21.673Z,16.73
2018-10-19T11:22:21.649Z,16.66
2018-10-19T11:23:21.632Z,16.55
2018-10-19T11:24:21.611Z,16.59
2018-10-19T11:25:21.592Z,16.55
2018-10-19T11:26:21.575Z,16.50
2018-10-19T11:27:21.558Z,16.40
2018-10-19T11:28:21.537Z,16.26
2018-10-19T11:29:21.516Z,16.21
2018-10-19T11:30:21.496Z,16.18
2018-10-19T11:31:21.479Z,16.12
2018-10-19T11:32:21.458Z,15.98
2018-10-19T11:33:21.440Z,15.94
2018-10-19T11:34:21.423Z,16.05
2018-10-19T11:35:21.408Z,15.92
2018-10-19T11:36:21.382Z,15.92
2018-10-19T11:37:21.383Z,15.83
2018-10-19T11:38:21.343Z,15.83
2018-10-19T11:39:21.324Z,15.73
2018-10-19T11:40:21.308Z,15.80
2018-10-19T11:41:21.290Z,15.70
2018-10-19T11:42:21.267Z,15.67
2018-10-19T11:43:21.248Z,15.63
2018-10-19T11:44:21.231Z,15.60
2018-10-19T11:45:21.211Z,15.62
2018-10-19T11:46:21.191Z,15.57
2018-10-19T11:47:21.173Z,15.54
2018-10-19T11:48:21.153Z,15.57
2018-10-19T11:49:21.157Z,15.54
2018-10-19T11:50:21.163Z,15.57
2018-10-19T11:51:21.096Z,15.55
2018-10-19T11:52:21.077Z,15.57
2018-10-19T11:53:21.058Z,15.52
2018-10-19T11:54:21.037Z,15.59
2018-10-19T11:55:21.018Z,15.52
2018-10-19T11:56:21.003Z,15.57
2018-10-19T11:57:20.980Z,15.52
2018-10-19T11:58:20.964Z,15.55
2018-10-19T11:59:20.946Z,15.57
2018-10-19T12:00:20.923Z,15.55
2018-10-19T12:01:20.904Z,15.50
2018-10-19T12:02:20.884Z,15.57
2018-10-19T12:03:20.906Z,15.55
2018-10-19T12:04:20.846Z,15.59
2018-10-19T12:05:20.832Z,15.63
2018-10-19T12:06:20.807Z,15.62
2018-10-19T12:07:20.788Z,15.60
2018-10-19T12:08:20.768Z,15.63
2018-10-19T12:09:20.752Z,15.66
2018-10-19T12:10:20.741Z,15.67
2018-10-19T12:11:20.711Z,15.59
2018-10-19T12:12:20.693Z,15.65
2018-10-19T12:13:20.677Z,15.69
2018-10-19T12:14:20.686Z,15.66
2018-10-19T12:15:20.635Z,15.69
2018-10-19T12:16:20.695Z,15.70
2018-10-19T12:17:20.597Z,15.72
2018-10-19T12:18:20.577Z,15.65
2018-10-19T12:19:20.559Z,15.75
2018-10-19T12:20:20.539Z,15.72
2018-10-19T12:21:20.593Z,15.69
2018-10-19T12:22:20.500Z,15.67
2018-10-19T12:23:20.481Z,15.67
2018-10-19T12:24:20.462Z,15.69
2018-10-19T12:25:20.442Z,15.80
2018-10-19T12:26:20.422Z,15.76
2018-10-19T12:27:20.405Z,15.78
2018-10-19T12:28:20.390Z,15.72
2018-10-19T12:29:20.366Z,15.76
2018-10-19T12:30:20.347Z,15.73
2018-10-19T12:31:20.330Z,15.75
2018-10-19T12:32:20.308Z,15.78
2018-10-19T12:33:20.291Z,15.72
2018-10-19T12:34:20.271Z,15.78
2018-10-19T12:35:20.254Z,15.81
2018-10-19T12:36:20.240Z,15.76
2018-10-19T12:37:20.214Z,15.75
2018-10-19T12:38:20.193Z,15.76
2018-10-19T12:39:20.175Z,15.84
2018-10-19T12:40:20.154Z,15.76
2018-10-19T12:41:20.138Z,15.84
2018-10-19T12:42:20.117Z,15.84
2018-10-19T12:43:20.098Z,15.85
2018-10-19T12:44:20.080Z,15.90
2018-10-19T12:45:20.061Z,15.85
2018-10-19T12:46:20.055Z,15.92
2018-10-19T12:47:20.065Z,15.91
2018-10-19T12:48:20.003Z,15.90
2018-10-19T12:49:19.994Z,15.90
2018-10-19T12:50:19.963Z,15.90
2018-10-19T12:51:19.950Z,15.92
2018-10-19T12:52:19.927Z,15.92